Time;durP1;ratioP1;P1;durP2;ratioP2;P2;SDS_P1;SDS_P2;PMS_P1;PMS_P2;Temp;Humidity;BMP_temperature;BMP_pressure;BME280_temperature;BME280_humidity;BME280_pressure;Samples;Min_cycle;Max_cycle;Signal;HPM_P1;HPM_P2
2023/12/24 00:01:07;;;;;;;;;;;2.40;100.00;;;;;;6209836;23;19919;-72
2023/12/24 00:03:34;;;;;;;;;;;2.40;100.00;;;;;;6237906;22;19941;-72
2023/12/24 00:06:00;;;;;;;;;;;2.40;100.00;;;;;;6237589;23;19954;-72
2023/12/24 00:08:28;;;;;;;;;;;2.40;100.00;;;;;;6211888;23;19927;-72
2023/12/24 00:10:59;;;;;;;;;;;2.40;100.00;;;;;;6237746;22;19989;-72
2023/12/24 00:13:26;;;;;;;;;;;2.30;100.00;;;;;;6237997;23;19992;-72
2023/12/24 00:15:52;;;;;;;;;;;2.30;100.00;;;;;;6211409;23;20113;-72
2023/12/24 00:18:19;;;;;;;;;;;2.30;100.00;;;;;;6238035;23;19927;-72
2023/12/24 00:20:46;;;;;;;;;;;2.30;100.00;;;;;;6237361;23;19927;-72
2023/12/24 00:23:13;;;;;;;;;;;2.30;100.00;;;;;;6211258;23;19931;-72
2023/12/24 00:25:43;;;;;;;;;;;2.20;100.00;;;;;;6210664;23;19998;-74
2023/12/24 00:28:09;;;;;;;;;;;2.20;100.00;;;;;;6237132;23;19970;-73
2023/12/24 00:30:36;;;;;;;;;;;2.10;100.00;;;;;;6237985;23;19919;-73
2023/12/24 00:33:03;;;;;;;;;;;2.10;100.00;;;;;;6237836;23;19998;-73
2023/12/24 00:35:32;;;;;;;;;;;2.10;100.00;;;;;;6237461;22;20433;-73
2023/12/24 00:37:59;;;;;;;;;;;2.00;100.00;;;;;;6237910;23;19950;-73
2023/12/24 00:40:26;;;;;;;;;;;2.00;100.00;;;;;;6238004;23;20328;-73
2023/12/24 00:42:53;;;;;;;;;;;1.90;100.00;;;;;;6237612;23;19923;-73
2023/12/24 00:45:20;;;;;;;;;;;1.90;100.00;;;;;;6210326;23;19922;-73
2023/12/24 00:47:47;;;;;;;;;;;1.80;100.00;;;;;;6237700;23;20287;-73
2023/12/24 00:50:14;;;;;;;;;;;1.70;100.00;;;;;;6236863;23;20002;-73
2023/12/24 00:52:41;;;;;;;;;;;1.70;100.00;;;;;;6210487;23;19920;-73
2023/12/24 00:55:08;;;;;;;;;;;1.60;100.00;;;;;;6237541;23;19973;-73
2023/12/24 00:57:37;;;;;;;;;;;1.60;100.00;;;;;;6237162;23;19942;-73
2023/12/24 01:00:05;;;;;;;;;;;1.60;100.00;;;;;;6237165;23;19919;-73
2023/12/24 01:02:32;;;;;;;;;;;1.50;100.00;;;;;;6237442;23;19924;-73
2023/12/24 01:04:58;;;;;;;;;;;1.50;100.00;;;;;;6237131;23;20396;-73
2023/12/24 01:07:25;;;;;;;;;;;1.50;100.00;;;;;;6237117;23;19916;-73
2023/12/24 01:09:52;;;;;;;;;;;1.40;100.00;;;;;;6210190;23;19974;-73
2023/12/24 01:12:19;;;;;;;;;;;1.30;100.00;;;;;;6237165;23;20489;-73
2023/12/24 01:14:45;;;;;;;;;;;1.30;100.00;;;;;;6237147;23;19927;-73
2023/12/24 01:17:13;;;;;;;;;;;1.20;100.00;;;;;;6210421;23;20016;-73
2023/12/24 01:19:40;;;;;;;;;;;1.20;100.00;;;;;;6236633;23;19919;-73
2023/12/24 01:22:06;;;;;;;;;;;1.20;100.00;;;;;;6236313;23;19920;-72
2023/12/24 01:24:34;;;;;;;;;;;1.10;100.00;;;;;;6210605;23;19926;-73
2023/12/24 01:27:01;;;;;;;;;;;1.10;100.00;;;;;;6237097;23;19919;-73
2023/12/24 01:29:28;;;;;;;;;;;1.00;100.00;;;;;;6236862;23;20273;-73
2023/12/24 01:31:55;;;;;;;;;;;1.00;100.00;;;;;;6236520;23;19927;-73
2023/12/24 01:34:21;;;;;;;;;;;1.00;100.00;;;;;;6236692;23;19926;-73
2023/12/24 01:36:48;;;;;;;;;;;1.00;100.00;;;;;;6236328;23;20441;-72
2023/12/24 01:39:15;;;;;;;;;;;0.90;100.00;;;;;;6236951;23;19969;-72
2023/12/24 01:41:43;;;;;;;;;;;0.90;100.00;;;;;;6209854;23;19919;-72
2023/12/24 01:44:10;;;;;;;;;;;0.90;100.00;;;;;;6210485;23;19915;-73
2023/12/24 01:46:37;;;;;;;;;;;0.80;100.00;;;;;;6210177;23;20607;-73
2023/12/24 01:49:04;;;;;;;;;;;0.90;100.00;;;;;;6209914;23;19931;-72
2023/12/24 01:51:32;;;;;;;;;;;0.80;100.00;;;;;;6210400;23;19919;-72
2023/12/24 01:53:59;;;;;;;;;;;0.80;100.00;;;;;;6236608;23;19927;-72
2023/12/24 01:56:30;;;;;;;;;;;0.80;100.00;;;;;;6210468;23;19924;-73
2023/12/24 01:58:57;;;;;;;;;;;0.80;100.00;;;;;;6210671;23;20491;-73
2023/12/24 02:01:25;;;;;;;;;;;0.70;100.00;;;;;;6210960;23;19959;-73
2023/12/24 02:03:53;;;;;;;;;;;0.70;100.00;;;;;;6209666;23;20006;-73
2023/12/24 02:06:21;;;;;;;;;;;0.60;100.00;;;;;;6237206;22;19919;-73
2023/12/24 02:08:48;;;;;;;;;;;0.60;100.00;;;;;;6237538;23;20564;-73
2023/12/24 02:11:16;;;;;;;;;;;0.50;100.00;;;;;;6237145;23;19969;-74
2023/12/24 02:13:44;;;;;;;;;;;0.50;100.00;;;;;;6236985;23;19923;-74
2023/12/24 02:16:11;;;;;;;;;;;0.40;100.00;;;;;;6236468;23;19923;-74
2023/12/24 02:18:38;;;;;;;;;;;0.40;100.00;;;;;;6236331;23;20252;-74
2023/12/24 02:21:05;;;;;;;;;;;0.30;100.00;;;;;;6236411;23;20006;-74
2023/12/24 02:23:32;;;;;;;;;;;0.30;100.00;;;;;;6236835;22;19924;-75
2023/12/24 02:26:22;;;;;;;;;;;0.20;100.00;;;;;;6236723;23;19923;-75
2023/12/24 02:28:51;;;;;;;;;;;0.20;100.00;;;;;;6218940;23;19923;-74
2023/12/24 02:31:19;;;;;;;;;;;0.20;100.00;;;;;;6236599;23;19920;-74
2023/12/24 02:33:49;;;;;;;;;;;0.10;100.00;;;;;;6236812;23;19973;-74
2023/12/24 02:36:17;;;;;;;;;;;0.10;100.00;;;;;;6236175;23;19985;-74
2023/12/24 02:38:43;;;;;;;;;;;0.10;100.00;;;;;;6209457;23;19919;-74
2023/12/24 02:41:10;;;;;;;;;;;0.10;100.00;;;;;;6236828;23;19919;-74
2023/12/24 02:43:37;;;;;;;;;;;0.00;100.00;;;;;;6236156;23;19925;-74
2023/12/24 02:46:04;;;;;;;;;;;0.00;100.00;;;;;;6209878;23;20332;-75
2023/12/24 02:48:30;;;;;;;;;;;0.00;100.00;;;;;;6210623;23;19924;-75
2023/12/24 02:50:57;;;;;;;;;;;0.00;100.00;;;;;;6210894;23;19994;-75
2023/12/24 02:53:24;;;;;;;;;;;0.00;100.00;;;;;;6239983;23;20244;-74
2023/12/24 02:55:51;;;;;;;;;;;0.00;100.00;;;;;;6240360;23;20332;-75
2023/12/24 02:58:17;;;;;;;;;;;0.00;100.00;;;;;;6241103;23;20060;-75
2023/12/24 03:00:44;;;;;;;;;;;0.00;100.00;;;;;;6239682;23;19923;-74
2023/12/24 03:03:11;;;;;;;;;;;0.00;100.00;;;;;;6239546;22;19927;-75
2023/12/24 03:05:38;;;;;;;;;;;0.00;100.00;;;;;;6238786;23;20614;-74
2023/12/24 03:08:05;;;;;;;;;;;0.00;100.00;;;;;;6238437;23;19998;-75
2023/12/24 03:10:32;;;;;;;;;;;0.00;100.00;;;;;;6211333;23;20373;-75
2023/12/24 03:12:58;;;;;;;;;;;0.00;100.00;;;;;;6210727;23;19919;-76
2023/12/24 03:15:25;;;;;;;;;;;0.00;100.00;;;;;;6237361;23;19919;-76
2023/12/24 03:17:52;;;;;;;;;;;0.00;100.00;;;;;;6237209;23;20647;-76
2023/12/24 03:20:19;;;;;;;;;;;0.00;100.00;;;;;;6237975;23;19920;-76
2023/12/24 03:22:46;;;;;;;;;;;0.00;100.00;;;;;;6237848;23;19920;-76
2023/12/24 03:25:12;;;;;;;;;;;0.00;100.00;;;;;;6210611;23;19943;-76
2023/12/24 03:27:39;;;;;;;;;;;0.00;100.00;;;;;;6238285;23;19927;-76
2023/12/24 03:30:06;;;;;;;;;;;0.00;100.00;;;;;;6238319;22;19919;-76
2023/12/24 03:32:33;;;;;;;;;;;0.00;100.00;;;;;;6238214;23;20471;-75
2023/12/24 03:35:00;;;;;;;;;;;0.10;100.00;;;;;;6238037;23;19970;-76
2023/12/24 03:37:27;;;;;;;;;;;0.10;100.00;;;;;;6239102;23;19942;-75
2023/12/24 03:39:54;;;;;;;;;;;0.10;100.00;;;;;;6211918;23;19950;-75
2023/12/24 03:42:20;;;;;;;;;;;0.10;100.00;;;;;;6213429;23;19916;-75
2023/12/24 03:44:47;;;;;;;;;;;0.10;100.00;;;;;;6240411;23;19962;-75
2023/12/24 03:47:14;;;;;;;;;;;0.10;100.00;;;;;;6240608;23;19990;-75
2023/12/24 03:49:41;;;;;;;;;;;0.20;100.00;;;;;;6213456;23;19942;-75
2023/12/24 03:52:07;;;;;;;;;;;0.20;100.00;;;;;;6240826;23;19923;-75
2023/12/24 03:54:34;;;;;;;;;;;0.20;100.00;;;;;;6241557;23;19974;-75
2023/12/24 03:57:01;;;;;;;;;;;0.20;100.00;;;;;;6240563;23;19920;-75
2023/12/24 03:59:30;;;;;;;;;;;0.30;100.00;;;;;;6240688;22;19923;-75
2023/12/24 04:01:56;;;;;;;;;;;0.30;100.00;;;;;;6237997;22;19951;-75
2023/12/24 04:04:23;;;;;;;;;;;0.30;100.00;;;;;;6210500;23;20003;-75
2023/12/24 04:06:50;;;;;;;;;;;0.30;100.00;;;;;;6238099;23;19920;-74
2023/12/24 04:09:17;;;;;;;;;;;0.30;100.00;;;;;;6211746;23;20617;-74
2023/12/24 04:11:46;;;;;;;;;;;0.30;100.00;;;;;;6237226;23;19916;-72
2023/12/24 04:14:13;;;;;;;;;;;0.40;100.00;;;;;;6237724;23;19949;-74
2023/12/24 04:16:40;;;;;;;;;;;0.40;100.00;;;;;;6210755;23;19920;-74
2023/12/24 04:19:07;;;;;;;;;;;0.40;100.00;;;;;;6236615;23;19919;-74
2023/12/24 04:21:34;;;;;;;;;;;0.40;100.00;;;;;;6210197;23;20108;-73
2023/12/24 04:24:01;;;;;;;;;;;0.40;100.00;;;;;;6238150;23;19923;-68
2023/12/24 04:26:27;;;;;;;;;;;0.40;100.00;;;;;;6236747;23;19926;-69
2023/12/24 04:28:54;;;;;;;;;;;0.50;100.00;;;;;;6235930;23;19924;-69
2023/12/24 04:31:21;;;;;;;;;;;0.50;100.00;;;;;;6236821;23;20399;-69
2023/12/24 04:33:48;;;;;;;;;;;0.50;100.00;;;;;;6236697;23;19919;-68
2023/12/24 04:36:20;;;;;;;;;;;0.50;100.00;;;;;;6236355;23;20038;-68
2023/12/24 04:38:47;;;;;;;;;;;0.50;100.00;;;;;;6209563;23;19926;-68
2023/12/24 04:41:15;;;;;;;;;;;0.50;100.00;;;;;;6236908;23;19923;-68
2023/12/24 04:43:42;;;;;;;;;;;0.50;100.00;;;;;;6208893;23;20603;-68
2023/12/24 04:46:09;;;;;;;;;;;0.60;100.00;;;;;;6235654;23;19919;-68
2023/12/24 04:48:36;;;;;;;;;;;0.60;100.00;;;;;;6236260;23;19924;-68
2023/12/24 04:51:03;;;;;;;;;;;0.60;100.00;;;;;;6236018;23;19934;-68
2023/12/24 04:53:30;;;;;;;;;;;0.60;100.00;;;;;;6236035;23;19919;-68
2023/12/24 04:55:57;;;;;;;;;;;0.60;100.00;;;;;;6235210;23;20359;-68
2023/12/24 04:58:23;;;;;;;;;;;0.60;100.00;;;;;;6235575;23;19919;-68
2023/12/24 05:00:50;;;;;;;;;;;0.70;100.00;;;;;;6209160;23;19920;-68
2023/12/24 05:03:17;;;;;;;;;;;0.70;100.00;;;;;;6236538;23;20499;-68
2023/12/24 05:05:44;;;;;;;;;;;0.70;100.00;;;;;;6208699;23;20000;-68
2023/12/24 05:08:11;;;;;;;;;;;0.70;100.00;;;;;;6234398;23;19919;-69
2023/12/24 05:10:37;;;;;;;;;;;0.80;100.00;;;;;;6235048;23;19920;-68
2023/12/24 05:13:04;;;;;;;;;;;0.80;100.00;;;;;;6207993;23;19928;-68
2023/12/24 05:15:31;;;;;;;;;;;0.80;100.00;;;;;;6233379;23;20609;-68
2023/12/24 05:17:58;;;;;;;;;;;0.80;100.00;;;;;;6208087;23;19926;-68
2023/12/24 05:20:25;;;;;;;;;;;0.90;100.00;;;;;;6235169;23;19942;-68
2023/12/24 05:22:52;;;;;;;;;;;0.90;100.00;;;;;;6234657;23;19980;-68
2023/12/24 05:25:20;;;;;;;;;;;0.90;100.00;;;;;;6207247;23;19920;-68
2023/12/24 05:27:47;;;;;;;;;;;0.90;100.00;;;;;;6235045;22;19923;-68
2023/12/24 05:30:14;;;;;;;;;;;1.00;100.00;;;;;;6208191;23;20492;-68
2023/12/24 05:32:40;;;;;;;;;;;1.00;100.00;;;;;;6235313;23;19925;-68
2023/12/24 05:35:07;;;;;;;;;;;1.00;100.00;;;;;;6235457;23;19919;-68
2023/12/24 05:37:34;;;;;;;;;;;1.10;100.00;;;;;;6235657;23;19926;-68
2023/12/24 05:40:01;;;;;;;;;;;1.10;100.00;;;;;;6235461;23;19920;-68
2023/12/24 05:42:28;;;;;;;;;;;1.10;100.00;;;;;;6209342;23;19920;-68
2023/12/24 05:44:55;;;;;;;;;;;1.10;100.00;;;;;;6235814;23;20007;-68
2023/12/24 05:47:21;;;;;;;;;;;1.10;100.00;;;;;;6208309;23;19951;-68
2023/12/24 05:49:48;;;;;;;;;;;1.20;100.00;;;;;;6235089;23;19919;-68
2023/12/24 05:52:15;;;;;;;;;;;1.20;100.00;;;;;;6209290;23;19969;-68
2023/12/24 05:54:42;;;;;;;;;;;1.20;100.00;;;;;;6208326;23;19919;-68
2023/12/24 05:57:08;;;;;;;;;;;1.30;100.00;;;;;;6235145;23;19973;-68
2023/12/24 05:59:35;;;;;;;;;;;1.30;100.00;;;;;;6235584;23;19919;-68
2023/12/24 06:02:02;;;;;;;;;;;1.30;100.00;;;;;;6235931;23;19926;-68
2023/12/24 06:04:29;;;;;;;;;;;1.40;100.00;;;;;;6235770;23;19924;-68
2023/12/24 06:06:56;;;;;;;;;;;1.40;100.00;;;;;;6235865;23;19919;-68
2023/12/24 06:09:25;;;;;;;;;;;1.50;100.00;;;;;;6209490;23;19919;-68
2023/12/24 06:11:52;;;;;;;;;;;1.50;100.00;;;;;;6234950;23;19920;-68
2023/12/24 06:14:19;;;;;;;;;;;1.50;100.00;;;;;;6235518;22;19915;-68
2023/12/24 06:16:45;;;;;;;;;;;1.60;100.00;;;;;;6235289;23;20565;-68
2023/12/24 06:19:12;;;;;;;;;;;1.60;100.00;;;;;;6234988;23;19919;-68
2023/12/24 06:21:43;;;;;;;;;;;1.60;100.00;;;;;;6235511;23;19926;-67
2023/12/24 06:24:10;;;;;;;;;;;1.60;100.00;;;;;;6234893;23;19919;-67
2023/12/24 06:26:36;;;;;;;;;;;1.70;100.00;;;;;;6209403;23;20454;-67
2023/12/24 06:29:03;;;;;;;;;;;1.70;100.00;;;;;;6238284;22;20599;-74
2023/12/24 06:31:30;;;;;;;;;;;1.80;100.00;;;;;;6237692;23;20321;-74
2023/12/24 06:33:57;;;;;;;;;;;1.80;100.00;;;;;;6237614;23;20628;-74
2023/12/24 06:36:24;;;;;;;;;;;1.90;100.00;;;;;;6237199;23;19977;-74
2023/12/24 06:42:08;;;;;;;;;;;2.00;100.00;;;;;;6204983;23;19926;-67
2023/12/24 06:44:35;;;;;;;;;;;2.10;100.00;;;;;;6206512;23;19970;-67
2023/12/24 06:47:02;;;;;;;;;;;2.20;100.00;;;;;;6206843;23;19924;-67
2023/12/24 06:49:28;;;;;;;;;;;2.20;100.00;;;;;;6207923;23;20314;-67
2023/12/24 06:51:55;;;;;;;;;;;2.30;100.00;;;;;;6206882;23;19920;-67
2023/12/24 06:54:22;;;;;;;;;;;2.50;100.00;;;;;;6204742;23;20288;-66
2023/12/24 06:56:49;;;;;;;;;;;2.60;100.00;;;;;;6206891;23;19939;-67
2023/12/24 06:59:16;;;;;;;;;;;2.70;100.00;;;;;;6206687;23;19927;-67
2023/12/24 07:01:43;;;;;;;;;;;2.80;100.00;;;;;;6207378;23;19920;-67
2023/12/24 07:04:10;;;;;;;;;;;2.80;100.00;;;;;;6206482;23;19943;-67
2023/12/24 07:06:37;;;;;;;;;;;2.90;100.00;;;;;;6206548;23;20391;-67
2023/12/24 07:09:05;;;;;;;;;;;3.00;100.00;;;;;;6205596;23;20415;-67
2023/12/24 07:11:32;;;;;;;;;;;3.10;100.00;;;;;;6206207;23;19950;-67
2023/12/24 07:13:59;;;;;;;;;;;3.20;100.00;;;;;;6206452;23;20288;-66
2023/12/24 07:16:26;;;;;;;;;;;3.30;100.00;;;;;;6203161;23;20779;-67
2023/12/24 07:18:52;;;;;;;;;;;3.40;100.00;;;;;;6205991;23;19955;-67
2023/12/24 07:21:19;;;;;;;;;;;3.60;100.00;;;;;;6204357;23;20615;-67
2023/12/24 07:23:46;;;;;;;;;;;3.80;100.00;;;;;;6205445;23;19949;-67
2023/12/24 07:26:13;;;;;;;;;;;3.90;100.00;;;;;;6203499;23;20011;-67
2023/12/24 07:28:40;;;;;;;;;;;4.10;100.00;;;;;;6205551;23;20402;-67
2023/12/24 07:31:07;;;;;;;;;;;4.20;100.00;;;;;;6205320;23;19966;-67
2023/12/24 07:33:34;;;;;;;;;;;4.30;100.00;;;;;;6205488;23;20357;-66
2023/12/24 07:36:01;;;;;;;;;;;4.40;100.00;;;;;;6205759;23;20520;-66
2023/12/24 07:38:29;;;;;;;;;;;4.50;100.00;;;;;;6179738;23;19924;-66
2023/12/24 07:40:56;;;;;;;;;;;4.60;100.00;;;;;;6205838;23;19954;-67
2023/12/24 07:43:23;;;;;;;;;;;4.70;100.00;;;;;;6205824;23;19970;-66
2023/12/24 07:45:50;;;;;;;;;;;4.80;100.00;;;;;;6206091;23;19920;-66
2023/12/24 07:48:17;;;;;;;;;;;4.90;100.00;;;;;;6205516;23;19955;-66
2023/12/24 07:50:44;;;;;;;;;;;5.00;100.00;;;;;;6206161;23;19924;-66
2023/12/24 07:53:11;;;;;;;;;;;5.10;100.00;;;;;;6179333;23;19970;-72
2023/12/24 07:55:39;;;;;;;;;;;5.20;100.00;;;;;;6203419;23;20349;-65
2023/12/24 07:58:06;;;;;;;;;;;5.30;100.00;;;;;;6206121;23;19920;-67
2023/12/24 08:00:32;;;;;;;;;;;5.30;100.00;;;;;;6204748;23;19926;-66
2023/12/24 08:02:59;;;;;;;;;;;5.50;100.00;;;;;;6205780;23;20234;-66
2023/12/24 08:05:26;;;;;;;;;;;5.50;100.00;;;;;;6205219;23;19920;-66
2023/12/24 08:07:53;;;;;;;;;;;5.70;100.00;;;;;;6205946;23;20004;-65
2023/12/24 08:10:19;;;;;;;;;;;5.70;100.00;;;;;;6205982;23;19962;-66
2023/12/24 08:12:46;;;;;;;;;;;5.80;100.00;;;;;;6204530;23;19928;-65
2023/12/24 08:15:14;;;;;;;;;;;5.80;100.00;;;;;;6205666;23;19966;-66
2023/12/24 08:17:41;;;;;;;;;;;5.90;100.00;;;;;;6204068;23;20005;-66
2023/12/24 08:20:08;;;;;;;;;;;5.90;100.00;;;;;;6204114;23;19919;-67
2023/12/24 08:22:36;;;;;;;;;;;6.00;100.00;;;;;;6205239;23;19989;-65
2023/12/24 08:25:03;;;;;;;;;;;6.10;100.00;;;;;;6179104;23;19920;-65
2023/12/24 08:27:31;;;;;;;;;;;6.10;100.00;;;;;;6205491;23;19967;-65
2023/12/24 08:29:57;;;;;;;;;;;6.20;100.00;;;;;;6203639;23;19997;-64
2023/12/24 08:32:24;;;;;;;;;;;6.20;100.00;;;;;;6204368;23;19958;-65
2023/12/24 08:34:53;;;;;;;;;;;6.30;100.00;;;;;;6203705;23;19920;-66
2023/12/24 08:37:20;;;;;;;;;;;6.40;100.00;;;;;;6204543;23;19920;-64
2023/12/24 08:39:47;;;;;;;;;;;6.40;100.00;;;;;;6205006;23;19920;-65
2023/12/24 08:42:13;;;;;;;;;;;6.50;100.00;;;;;;6205488;23;19970;-65
2023/12/24 08:44:41;;;;;;;;;;;6.50;100.00;;;;;;6205188;23;19920;-64
2023/12/24 08:47:07;;;;;;;;;;;6.60;100.00;;;;;;6202990;23;19923;-66
2023/12/24 08:49:34;;;;;;;;;;;6.70;100.00;;;;;;6204847;23;20018;-66
2023/12/24 08:52:01;;;;;;;;;;;6.70;100.00;;;;;;6202597;23;20525;-65
2023/12/24 08:54:28;;;;;;;;;;;6.80;100.00;;;;;;6205755;23;19981;-65
2023/12/24 08:56:55;;;;;;;;;;;6.80;100.00;;;;;;6203707;23;19928;-65
2023/12/24 08:59:21;;;;;;;;;;;6.90;100.00;;;;;;6204074;23;19927;-65
2023/12/24 09:01:49;;;;;;;;;;;6.90;100.00;;;;;;6205505;23;19919;-65
2023/12/24 09:04:16;;;;;;;;;;;7.00;100.00;;;;;;6205746;23;19970;-66
2023/12/24 09:09:12;;;;;;;;;;;7.00;100.00;;;;;;6230584;23;19948;-65
2023/12/24 09:11:39;;;;;;;;;;;7.10;100.00;;;;;;6230201;23;19920;-65
2023/12/24 09:14:06;;;;;;;;;;;7.20;100.00;;;;;;6229995;23;20649;-65
2023/12/24 09:16:33;;;;;;;;;;;7.20;100.00;;;;;;6229933;23;19925;-65
2023/12/24 09:19:00;;;;;;;;;;;7.30;100.00;;;;;;6231492;23;19972;-65
2023/12/24 09:21:26;;;;;;;;;;;7.30;100.00;;;;;;6204530;23;19926;-65
2023/12/24 09:23:54;;;;;;;;;;;7.30;100.00;;;;;;6230335;23;20484;-66
2023/12/24 09:26:21;;;;;;;;;;;7.40;100.00;;;;;;6235260;23;20041;-65
2023/12/24 09:28:48;;;;;;;;;;;7.40;100.00;;;;;;6235988;23;19986;-66
2023/12/24 09:31:15;;;;;;;;;;;7.40;100.00;;;;;;6232259;23;19965;-66
2023/12/24 09:33:42;;;;;;;;;;;7.50;100.00;;;;;;6231241;23;19997;-65
2023/12/24 09:36:09;;;;;;;;;;;7.50;100.00;;;;;;6232750;23;19919;-65
2023/12/24 09:38:36;;;;;;;;;;;7.50;100.00;;;;;;6231640;23;19926;-65
2023/12/24 09:41:03;;;;;;;;;;;7.60;100.00;;;;;;6205038;23;19920;-65
2023/12/24 09:43:30;;;;;;;;;;;7.60;100.00;;;;;;6232530;23;19915;-65
2023/12/24 09:45:57;;;;;;;;;;;7.60;100.00;;;;;;6231418;23;19930;-65
2023/12/24 09:48:24;;;;;;;;;;;7.70;100.00;;;;;;6203979;23;19969;-65
2023/12/24 09:50:51;;;;;;;;;;;7.70;100.00;;;;;;6231800;23;19927;-65
2023/12/24 09:53:18;;;;;;;;;;;7.70;100.00;;;;;;6231716;23;19919;-65
2023/12/24 09:55:45;;;;;;;;;;;7.80;100.00;;;;;;6204527;23;19925;-65
2023/12/24 09:58:12;;;;;;;;;;;7.80;100.00;;;;;;6231291;23;19997;-65
2023/12/24 10:00:38;;;;;;;;;;;7.80;100.00;;;;;;6233110;23;19958;-65
2023/12/24 10:03:05;;;;;;;;;;;7.90;100.00;;;;;;6204518;23;19919;-66
2023/12/24 10:05:32;;;;;;;;;;;7.90;100.00;;;;;;6231539;23;19973;-66
2023/12/24 10:07:59;;;;;;;;;;;7.90;100.00;;;;;;6205250;23;19924;-66
2023/12/24 10:10:29;;;;;;;;;;;7.90;100.00;;;;;;6231649;23;19919;-65
2023/12/24 10:13:02;;;;;;;;;;;8.00;100.00;;;;;;6231181;23;19919;-66
2023/12/24 10:15:31;;;;;;;;;;;8.00;100.00;;;;;;6231410;23;19985;-66
2023/12/24 10:18:14;;;;;;;;;;;8.00;100.00;;;;;;6204277;23;19947;-66
2023/12/24 10:20:41;;;;;;;;;;;8.00;100.00;;;;;;6231469;23;20586;-72
2023/12/24 10:23:08;;;;;;;;;;;8.10;100.00;;;;;;6232122;23;19919;-74
2023/12/24 10:25:35;;;;;;;;;;;8.10;100.00;;;;;;6232160;23;19953;-74
2023/12/24 10:28:06;;;;;;;;;;;8.10;100.00;;;;;;6205128;23;19998;-74
2023/12/24 10:30:33;;;;;;;;;;;8.10;100.00;;;;;;6204026;23;20013;-74
2023/12/24 10:33:08;;;;;;;;;;;8.10;100.00;;;;;;6231899;23;20471;-74
2023/12/24 10:35:35;;;;;;;;;;;8.20;100.00;;;;;;6231401;23;19920;-74
2023/12/24 10:38:10;;;;;;;;;;;8.20;100.00;;;;;;6205234;23;19966;-73
2023/12/24 10:40:37;;;;;;;;;;;8.20;100.00;;;;;;6232814;23;19923;-66
2023/12/24 10:43:04;;;;;;;;;;;8.20;100.00;;;;;;6208337;23;19954;-66
2023/12/24 10:45:31;;;;;;;;;;;8.20;100.00;;;;;;6235267;23;19915;-66
2023/12/24 10:47:58;;;;;;;;;;;8.30;100.00;;;;;;6235617;23;20387;-66
2023/12/24 10:50:24;;;;;;;;;;;8.30;100.00;;;;;;6235515;23;19977;-66
2023/12/24 10:52:52;;;;;;;;;;;8.30;100.00;;;;;;6234532;23;19920;-66
2023/12/24 10:55:22;;;;;;;;;;;8.30;100.00;;;;;;6208363;23;19925;-66
2023/12/24 10:57:52;;;;;;;;;;;8.30;100.00;;;;;;6208203;23;20329;-66
2023/12/24 11:00:20;;;;;;;;;;;8.30;100.00;;;;;;6235252;23;19915;-67
2023/12/24 11:02:49;;;;;;;;;;;8.30;100.00;;;;;;6235645;23;19996;-66
2023/12/24 11:05:34;;;;;;;;;;;8.40;100.00;;;;;;6234548;23;19923;-66
2023/12/24 11:08:01;;;;;;;;;;;8.40;100.00;;;;;;6234046;23;19919;-66
2023/12/24 11:10:42;;;;;;;;;;;8.40;100.00;;;;;;6234688;23;19947;-66
2023/12/24 11:13:10;;;;;;;;;;;8.40;100.00;;;;;;6236568;23;19923;-66
2023/12/24 11:15:39;;;;;;;;;;;8.50;100.00;;;;;;6209492;23;20003;-67
2023/12/24 11:18:06;;;;;;;;;;;8.50;100.00;;;;;;6209773;23;19919;-74
2023/12/24 11:20:38;;;;;;;;;;;8.50;100.00;;;;;;6208156;23;19965;-74
2023/12/24 11:23:05;;;;;;;;;;;8.60;100.00;;;;;;6209256;23;20256;-74
2023/12/24 11:25:35;;;;;;;;;;;8.60;100.00;;;;;;6235520;23;19923;-74
2023/12/24 11:28:02;;;;;;;;;;;8.60;100.00;;;;;;6233360;23;19920;-74
2023/12/24 11:30:49;;;;;;;;;;;8.60;100.00;;;;;;6206200;23;19926;-74
2023/12/24 11:33:28;;;;;;;;;;;8.60;100.00;;;;;;6232292;23;19926;-75
2023/12/24 11:35:56;;;;;;;;;;;8.60;100.00;;;;;;6206076;23;19943;-74
2023/12/24 11:38:35;;;;;;;;;;;8.70;100.00;;;;;;6232305;23;19942;-74
2023/12/24 11:41:05;;;;;;;;;;;8.70;100.00;;;;;;6233168;23;19982;-74
2023/12/24 11:43:32;;;;;;;;;;;8.70;100.00;;;;;;6206943;23;19920;-74
2023/12/24 11:45:59;;;;;;;;;;;8.70;100.00;;;;;;6185258;23;19923;-74
2023/12/24 11:48:27;;;;;;;;;;;8.80;100.00;;;;;;6236571;23;19973;-74
2023/12/24 11:51:07;;;;;;;;;;;8.80;100.00;;;;;;6210540;23;19926;-74
2023/12/24 11:53:35;;;;;;;;;;;8.90;100.00;;;;;;6209457;23;20337;-74
2023/12/24 11:56:12;;;;;;;;;;;8.80;100.00;;;;;;6236028;23;20006;-74
2023/12/24 11:58:40;;;;;;;;;;;8.90;100.00;;;;;;6209074;23;19954;-74
2023/12/24 12:01:06;;;;;;;;;;;8.90;100.00;;;;;;6207824;23;20388;-74
2023/12/24 12:03:34;;;;;;;;;;;8.90;100.00;;;;;;6233742;23;19931;-75
2023/12/24 12:06:03;;;;;;;;;;;8.90;100.00;;;;;;6234524;23;19923;-74
2023/12/24 12:08:30;;;;;;;;;;;8.90;100.00;;;;;;6235770;23;19920;-74
2023/12/24 12:10:57;;;;;;;;;;;9.00;100.00;;;;;;6208928;23;20325;-74
2023/12/24 12:13:24;;;;;;;;;;;9.00;100.00;;;;;;6208286;23;19925;-74
2023/12/24 12:15:51;;;;;;;;;;;9.00;100.00;;;;;;6235126;23;20542;-66
2023/12/24 12:18:18;;;;;;;;;;;9.00;100.00;;;;;;6235987;23;19919;-66
2023/12/24 12:20:45;;;;;;;;;;;9.00;100.00;;;;;;6235138;23;19919;-67
2023/12/24 12:23:18;;;;;;;;;;;9.00;100.00;;;;;;6236437;23;19919;-66
2023/12/24 12:25:51;;;;;;;;;;;9.00;100.00;;;;;;6210934;23;19919;-68
2023/12/24 12:28:18;;;;;;;;;;;9.00;100.00;;;;;;6209391;23;19998;-73
2023/12/24 12:30:45;;;;;;;;;;;9.00;100.00;;;;;;6236463;23;20272;-73
2023/12/24 12:33:12;;;;;;;;;;;9.10;100.00;;;;;;6236870;23;19919;-73
2023/12/24 12:35:39;;;;;;;;;;;9.10;100.00;;;;;;6235429;23;19920;-73
2023/12/24 12:38:06;;;;;;;;;;;9.10;100.00;;;;;;6235519;23;19966;-74
2023/12/24 12:40:33;;;;;;;;;;;9.10;100.00;;;;;;6236450;23;19919;-66
2023/12/24 12:43:09;;;;;;;;;;;9.10;100.00;;;;;;6211003;23;19923;-66
2023/12/24 12:45:36;;;;;;;;;;;9.10;100.00;;;;;;6235719;23;19919;-67
2023/12/24 12:48:03;;;;;;;;;;;9.20;100.00;;;;;;6235890;23;19916;-67
2023/12/24 12:50:30;;;;;;;;;;;9.20;100.00;;;;;;6234933;23;19919;-66
2023/12/24 12:52:58;;;;;;;;;;;9.10;100.00;;;;;;6208668;23;20340;-66
2023/12/24 12:55:25;;;;;;;;;;;9.10;100.00;;;;;;6231070;23;19973;-67
2023/12/24 12:57:51;;;;;;;;;;;9.10;100.00;;;;;;6205753;23;19919;-66
2023/12/24 13:00:20;;;;;;;;;;;9.10;100.00;;;;;;6206764;23;19959;-66
2023/12/24 13:02:48;;;;;;;;;;;9.10;100.00;;;;;;6233069;23;19920;-67
2023/12/24 13:05:24;;;;;;;;;;;9.10;100.00;;;;;;6236250;23;19926;-67
2023/12/24 13:07:51;;;;;;;;;;;9.10;100.00;;;;;;6235751;23;19925;-66
2023/12/24 13:10:28;;;;;;;;;;;9.20;100.00;;;;;;6237115;23;19946;-65
2023/12/24 13:13:08;;;;;;;;;;;9.20;100.00;;;;;;6235151;23;20477;-67
2023/12/24 13:15:36;;;;;;;;;;;9.20;100.00;;;;;;6233704;23;19926;-67
2023/12/24 13:18:14;;;;;;;;;;;9.20;100.00;;;;;;6232814;23;20682;-67
2023/12/24 13:20:45;;;;;;;;;;;9.20;100.00;;;;;;6206938;23;20586;-68
2023/12/24 13:23:12;;;;;;;;;;;9.20;100.00;;;;;;6206578;23;20006;-67
2023/12/24 13:25:43;;;;;;;;;;;9.20;100.00;;;;;;6229811;23;20582;-67
2023/12/24 13:28:10;;;;;;;;;;;9.20;100.00;;;;;;6230976;23;19919;-67
2023/12/24 13:30:37;;;;;;;;;;;9.20;100.00;;;;;;6204177;23;19924;-67
2023/12/24 13:33:04;;;;;;;;;;;9.20;100.00;;;;;;6202901;23;20552;-67
2023/12/24 13:35:33;;;;;;;;;;;9.20;100.00;;;;;;6207139;23;19970;-67
2023/12/24 13:38:03;;;;;;;;;;;9.20;100.00;;;;;;6208144;23;19926;-66
2023/12/24 13:40:31;;;;;;;;;;;9.20;100.00;;;;;;6234108;23;19919;-68
2023/12/24 13:42:58;;;;;;;;;;;9.20;100.00;;;;;;6235468;23;19930;-68
2023/12/24 13:45:25;;;;;;;;;;;9.20;100.00;;;;;;6208840;23;19926;-74
2023/12/24 13:47:52;;;;;;;;;;;9.20;100.00;;;;;;6206652;23;19931;-74
2023/12/24 13:50:20;;;;;;;;;;;9.20;100.00;;;;;;6233570;23;19915;-73
2023/12/24 13:52:47;;;;;;;;;;;9.30;100.00;;;;;;6232763;23;20489;-74
2023/12/24 13:55:17;;;;;;;;;;;9.30;100.00;;;;;;6232969;23;19920;-74
2023/12/24 13:57:43;;;;;;;;;;;9.30;100.00;;;;;;6233983;23;19920;-74
2023/12/24 14:00:11;;;;;;;;;;;9.30;100.00;;;;;;6235805;23;19920;-74
2023/12/24 14:02:39;;;;;;;;;;;9.30;100.00;;;;;;6208784;23;19997;-74
2023/12/24 14:05:06;;;;;;;;;;;9.40;100.00;;;;;;6235884;23;19919;-74
2023/12/24 14:07:33;;;;;;;;;;;9.30;100.00;;;;;;6235461;23;19926;-74
2023/12/24 14:10:00;;;;;;;;;;;9.40;100.00;;;;;;6208961;23;20229;-74
2023/12/24 14:12:27;;;;;;;;;;;9.30;100.00;;;;;;6234801;23;19919;-74
2023/12/24 14:15:06;;;;;;;;;;;9.40;100.00;;;;;;6236533;23;19915;-73
2023/12/24 14:17:33;;;;;;;;;;;9.40;100.00;;;;;;6231942;23;19923;-74
2023/12/24 14:20:00;;;;;;;;;;;9.40;100.00;;;;;;6231293;23;19985;-74
2023/12/24 14:22:28;;;;;;;;;;;9.40;100.00;;;;;;6232470;23;20483;-74
2023/12/24 14:24:58;;;;;;;;;;;9.40;100.00;;;;;;6205844;23;19919;-74